createdAt,value
2022-12-28T00:00:25.445Z,17.96
2022-12-28T00:01:25.335Z,17.95
2022-12-28T00:02:25.467Z,17.94
2022-12-28T00:03:25.384Z,17.92
2022-12-28T00:04:25.400Z,17.95
2022-12-28T00:05:25.434Z,17.95
2022-12-28T00:06:25.445Z,17.91
2022-12-28T00:07:25.478Z,17.91
2022-12-28T00:08:25.526Z,17.89
2022-12-28T00:09:25.510Z,17.89
2022-12-28T00:11:07.478Z,17.92
2022-12-28T00:11:27.647Z,17.94
2022-12-28T00:12:25.510Z,17.96
2022-12-28T00:13:25.526Z,17.98
2022-12-28T00:14:25.532Z,17.98
2022-12-28T00:15:25.530Z,17.96
2022-12-28T00:16:25.593Z,17.95
2022-12-28T00:17:25.551Z,17.95
2022-12-28T00:18:25.587Z,17.96
2022-12-28T00:19:25.599Z,17.98
2022-12-28T00:20:25.639Z,17.94
2022-12-28T00:21:25.646Z,17.95
2022-12-28T00:22:25.662Z,17.95
2022-12-28T00:23:25.669Z,17.95
2022-12-28T00:24:25.723Z,17.92
2022-12-28T00:25:25.721Z,17.94
2022-12-28T00:26:25.727Z,17.95
2022-12-28T00:27:25.767Z,17.96
2022-12-28T00:28:25.740Z,17.96
2022-12-28T00:29:25.794Z,17.96
2022-12-28T00:30:25.812Z,17.98
2022-12-28T00:31:25.869Z,17.96
2022-12-28T00:32:25.867Z,17.95
2022-12-28T00:33:25.843Z,17.95
2022-12-28T00:34:25.848Z,17.96
2022-12-28T00:35:25.868Z,17.95
2022-12-28T00:37:09.757Z,17.96
2022-12-28T00:37:25.922Z,17.99
2022-12-28T00:38:25.959Z,17.98
2022-12-28T00:39:25.927Z,17.96
2022-12-28T00:40:25.967Z,17.94
2022-12-28T00:41:25.932Z,17.95
2022-12-28T00:42:25.943Z,17.98
2022-12-28T00:43:25.966Z,17.98
2022-12-28T00:44:25.999Z,17.98
2022-12-28T00:45:26.075Z,17.98
2022-12-28T00:46:26.080Z,18.01
2022-12-28T00:47:26.050Z,17.99
2022-12-28T00:48:26.058Z,18.01
2022-12-28T00:49:26.080Z,18.05
2022-12-28T00:50:26.091Z,17.99
2022-12-28T00:51:26.148Z,17.96
2022-12-28T00:52:26.125Z,18.01
2022-12-28T00:53:26.134Z,18.02
2022-12-28T00:54:26.168Z,18.02
2022-12-28T00:55:26.185Z,18.04
2022-12-28T00:56:26.246Z,18.02
2022-12-28T00:57:26.223Z,18.01
2022-12-28T00:58:26.199Z,18.05
2022-12-28T00:59:26.212Z,18.05
2022-12-28T01:00:26.238Z,18.07
2022-12-28T01:01:26.436Z,18.05
2022-12-28T01:02:28.606Z,18.09
2022-12-28T01:03:26.261Z,18.05
2022-12-28T01:04:26.287Z,18.04
2022-12-28T01:05:26.296Z,18.05
2022-12-28T01:06:26.317Z,18.09
2022-12-28T01:07:26.337Z,18.07
2022-12-28T01:08:26.375Z,18.07
2022-12-28T01:09:26.424Z,18.07
2022-12-28T01:10:26.380Z,18.10
2022-12-28T01:11:26.386Z,18.11
2022-12-28T01:12:26.436Z,18.10
2022-12-28T01:13:26.410Z,18.10
2022-12-28T01:14:26.380Z,18.10
2022-12-28T01:15:26.432Z,18.07
2022-12-28T01:16:26.527Z,18.09
2022-12-28T01:17:26.462Z,18.09
2022-12-28T01:18:26.489Z,18.13
2022-12-28T01:19:26.495Z,18.10
2022-12-28T01:20:26.532Z,18.11
2022-12-28T01:21:27.477Z,18.11
2022-12-28T01:22:26.563Z,18.10
2022-12-28T01:23:26.594Z,18.09
2022-12-28T01:24:26.599Z,18.11
2022-12-28T01:25:26.619Z,18.11
2022-12-28T01:26:26.651Z,18.13
2022-12-28T01:27:26.652Z,18.13
2022-12-28T01:28:26.760Z,18.13
2022-12-28T01:29:26.691Z,18.13
2022-12-28T01:30:26.700Z,18.13
2022-12-28T01:31:26.822Z,18.13
2022-12-28T01:32:26.757Z,18.11
2022-12-28T01:33:26.782Z,18.14
2022-12-28T01:34:26.755Z,18.11
2022-12-28T01:35:26.801Z,18.13
2022-12-28T01:36:26.758Z,18.14
2022-12-28T01:37:26.773Z,18.14
2022-12-28T01:38:27.070Z,18.11
2022-12-28T01:39:26.823Z,18.11
2022-12-28T01:40:26.834Z,18.13
2022-12-28T01:41:26.856Z,18.10
2022-12-28T01:42:26.870Z,18.13
2022-12-28T01:43:29.696Z,18.11
2022-12-28T01:44:26.955Z,18.11
2022-12-28T01:45:26.981Z,18.10
2022-12-28T01:46:26.920Z,18.10
2022-12-28T01:47:26.963Z,18.10
2022-12-28T01:48:26.982Z,18.13
2022-12-28T01:49:26.979Z,18.14
2022-12-28T01:50:26.997Z,18.13
2022-12-28T01:51:27.011Z,18.11
2022-12-28T01:52:27.033Z,18.07
2022-12-28T01:53:27.078Z,18.11
2022-12-28T01:54:27.059Z,18.13
2022-12-28T01:55:27.107Z,18.11
2022-12-28T01:56:27.057Z,18.11
2022-12-28T01:57:27.102Z,18.09
2022-12-28T01:58:27.112Z,18.07
2022-12-28T01:59:27.079Z,18.10
2022-12-28T02:00:27.157Z,18.11
2022-12-28T02:01:27.247Z,18.13
2022-12-28T02:02:27.274Z,18.16
2022-12-28T02:03:27.171Z,18.17
2022-12-28T02:04:27.153Z,18.17
2022-12-28T02:05:27.169Z,18.14
2022-12-28T02:06:27.187Z,18.13
2022-12-28T02:07:27.188Z,18.14
2022-12-28T02:08:27.212Z,18.16
2022-12-28T02:09:27.187Z,18.16
2022-12-28T02:10:43.893Z,18.16
2022-12-28T02:11:27.263Z,18.13
2022-12-28T02:12:27.293Z,18.14
2022-12-28T02:13:27.493Z,18.14
2022-12-28T02:14:27.244Z,18.13
2022-12-28T02:15:27.285Z,18.13
2022-12-28T02:16:27.299Z,18.10
2022-12-28T02:17:27.267Z,18.11
2022-12-28T02:18:27.300Z,18.13
2022-12-28T02:19:27.317Z,18.11
2022-12-28T02:20:27.402Z,18.13
2022-12-28T02:21:27.366Z,18.10
2022-12-28T02:22:27.382Z,18.13
2022-12-28T02:23:27.417Z,18.11
2022-12-28T02:24:27.428Z,18.13
2022-12-28T02:25:27.485Z,18.10
2022-12-28T02:26:27.450Z,18.10
2022-12-28T02:27:27.491Z,18.13
2022-12-28T02:28:27.482Z,18.14
2022-12-28T02:29:27.484Z,18.11
2022-12-28T02:30:27.534Z,18.11
2022-12-28T02:31:27.514Z,18.13
2022-12-28T02:32:27.573Z,18.11
2022-12-28T02:33:27.527Z,18.10
2022-12-28T02:34:27.557Z,18.10
2022-12-28T02:35:27.529Z,18.09
2022-12-28T02:36:27.571Z,18.11
2022-12-28T02:37:27.596Z,18.11
2022-12-28T02:38:27.729Z,18.10
2022-12-28T02:39:27.642Z,18.13
2022-12-28T02:40:27.666Z,18.10
2022-12-28T02:41:27.677Z,18.11
2022-12-28T02:42:27.698Z,18.10
2022-12-28T02:43:27.735Z,18.10
2022-12-28T02:44:27.754Z,18.10
2022-12-28T02:45:27.779Z,18.11
2022-12-28T02:46:27.842Z,18.13
2022-12-28T02:47:27.800Z,18.10
2022-12-28T02:48:27.854Z,18.16
2022-12-28T02:49:27.821Z,18.14
2022-12-28T02:50:27.853Z,18.14
2022-12-28T02:51:27.858Z,18.14
2022-12-28T02:52:27.888Z,18.16
2022-12-28T02:53:27.900Z,18.14
2022-12-28T02:54:27.931Z,18.11
2022-12-28T02:55:27.952Z,18.13
2022-12-28T02:56:27.997Z,18.14
2022-12-28T02:57:28.010Z,18.14
2022-12-28T02:58:28.040Z,18.14
2022-12-28T02:59:28.009Z,18.13
2022-12-28T03:00:28.033Z,18.11
2022-12-28T03:01:28.138Z,18.13
2022-12-28T03:02:28.327Z,18.14
2022-12-28T03:03:28.140Z,18.16
2022-12-28T03:04:28.149Z,18.13
2022-12-28T03:05:28.128Z,18.11
2022-12-28T03:06:30.460Z,18.10
2022-12-28T03:07:28.170Z,18.11
2022-12-28T03:08:28.134Z,18.16
2022-12-28T03:09:28.148Z,18.17
2022-12-28T03:10:28.182Z,18.16
2022-12-28T03:11:28.198Z,18.14
2022-12-28T03:12:28.216Z,18.13
2022-12-28T03:13:28.254Z,18.11
2022-12-28T03:14:28.254Z,18.10
2022-12-28T03:15:28.304Z,18.11
2022-12-28T03:16:28.286Z,18.10
2022-12-28T03:17:28.331Z,18.10
2022-12-28T03:18:28.304Z,18.10
2022-12-28T03:19:28.309Z,18.10
2022-12-28T03:20:28.338Z,18.11
2022-12-28T03:21:28.372Z,18.11
2022-12-28T03:22:28.362Z,18.13
2022-12-28T03:23:28.385Z,18.14
2022-12-28T03:24:28.387Z,18.16
2022-12-28T03:25:28.418Z,18.14
2022-12-28T03:26:28.378Z,18.14
2022-12-28T03:27:28.659Z,18.17
2022-12-28T03:28:28.443Z,18.16
2022-12-28T03:29:28.426Z,18.14
2022-12-28T03:30:28.433Z,18.16
2022-12-28T03:31:28.553Z,18.16
2022-12-28T03:32:28.462Z,18.13
2022-12-28T03:33:28.459Z,18.13
2022-12-28T03:34:28.464Z,18.11
2022-12-28T03:35:28.492Z,18.13
2022-12-28T03:36:28.539Z,18.13
2022-12-28T03:37:28.526Z,18.11
2022-12-28T03:38:28.549Z,18.14
2022-12-28T03:39:28.556Z,18.14
2022-12-28T03:40:28.615Z,18.14
2022-12-28T03:41:28.571Z,18.11
2022-12-28T03:42:28.617Z,18.13
2022-12-28T03:43:28.632Z,18.14
2022-12-28T03:44:28.663Z,18.16
2022-12-28T03:45:46.183Z,18.19
2022-12-28T03:46:28.790Z,18.16
2022-12-28T03:47:28.682Z,18.14
2022-12-28T03:48:28.712Z,18.17
2022-12-28T03:49:28.722Z,18.16
2022-12-28T03:50:28.759Z,18.14
2022-12-28T03:51:28.769Z,18.13
2022-12-28T03:52:28.839Z,18.16
2022-12-28T03:53:28.803Z,18.16
2022-12-28T03:54:28.826Z,18.16
2022-12-28T03:55:28.851Z,18.16
2022-12-28T03:56:28.874Z,18.17
2022-12-28T03:57:28.892Z,18.17
2022-12-28T03:58:28.899Z,18.19
2022-12-28T03:59:28.867Z,18.19
2022-12-28T04:00:28.877Z,18.16
2022-12-28T04:01:28.997Z,18.13
2022-12-28T04:02:29.038Z,18.13
2022-12-28T04:03:28.952Z,18.13
2022-12-28T04:04:28.904Z,18.14
2022-12-28T04:05:28.938Z,18.16
2022-12-28T04:06:28.941Z,18.16
2022-12-28T04:07:29.026Z,18.16
2022-12-28T04:08:29.010Z,18.17
2022-12-28T04:09:29.020Z,18.17
2022-12-28T04:10:29.050Z,18.17
2022-12-28T04:11:29.074Z,18.13
2022-12-28T04:12:29.102Z,18.10
2022-12-28T04:13:29.143Z,18.09
2022-12-28T04:14:29.129Z,18.11
2022-12-28T04:15:29.154Z,18.11
2022-12-28T04:16:29.197Z,18.07
2022-12-28T04:17:29.212Z,18.07
2022-12-28T04:18:29.233Z,18.11
2022-12-28T04:19:29.240Z,18.14
2022-12-28T04:20:29.264Z,18.14
2022-12-28T04:21:29.296Z,18.16
2022-12-28T04:22:29.322Z,18.16
2022-12-28T04:23:29.298Z,18.13
2022-12-28T04:24:29.339Z,18.11
2022-12-28T04:25:29.301Z,18.13
2022-12-28T04:26:29.360Z,18.13
2022-12-28T04:27:29.345Z,18.17
2022-12-28T04:28:29.380Z,18.16
2022-12-28T04:29:29.340Z,18.13
2022-12-28T04:30:29.410Z,18.13
2022-12-28T04:31:29.452Z,18.13
2022-12-28T04:32:29.447Z,18.13
2022-12-28T04:33:29.415Z,18.13
2022-12-28T04:34:29.444Z,18.13
2022-12-28T04:35:29.493Z,18.14
2022-12-28T04:36:29.440Z,18.16
2022-12-28T04:37:29.515Z,18.14
2022-12-28T04:38:29.485Z,18.10
2022-12-28T04:39:55.320Z,18.11
2022-12-28T04:40:29.535Z,18.11
2022-12-28T04:41:29.498Z,18.11
2022-12-28T04:42:29.537Z,18.13
2022-12-28T04:43:29.514Z,18.19
2022-12-28T04:44:29.543Z,18.14
2022-12-28T04:45:29.563Z,18.16
2022-12-28T04:46:29.650Z,18.17
2022-12-28T04:47:29.608Z,18.19
2022-12-28T04:48:29.575Z,18.17
2022-12-28T04:49:29.606Z,18.13
2022-12-28T04:50:29.620Z,18.17
2022-12-28T04:51:29.652Z,18.19
2022-12-28T04:52:29.717Z,18.19
2022-12-28T04:53:29.670Z,18.20
2022-12-28T04:54:29.659Z,18.20
2022-12-28T04:55:32.133Z,18.19
2022-12-28T04:56:29.737Z,18.17
2022-12-28T04:57:29.698Z,18.16
2022-12-28T04:58:29.708Z,18.11
2022-12-28T04:59:29.717Z,18.11
2022-12-28T05:00:29.867Z,18.14
2022-12-28T05:01:29.842Z,18.20
2022-12-28T05:02:29.897Z,18.21
2022-12-28T05:03:29.735Z,18.21
2022-12-28T05:04:29.775Z,18.20
2022-12-28T05:05:29.748Z,18.20
2022-12-28T05:06:29.762Z,18.21
2022-12-28T05:07:29.801Z,18.23
2022-12-28T05:08:29.776Z,18.21
2022-12-28T05:09:29.788Z,18.20
2022-12-28T05:10:29.860Z,18.21
2022-12-28T05:11:29.842Z,18.23
2022-12-28T05:12:29.883Z,18.23
2022-12-28T05:13:29.898Z,18.21
2022-12-28T05:14:36.607Z,18.20
2022-12-28T05:15:29.931Z,18.20
2022-12-28T05:16:30.004Z,18.20
2022-12-28T05:17:29.966Z,18.19
2022-12-28T05:18:29.972Z,18.20
2022-12-28T05:19:30.003Z,18.20
2022-12-28T05:20:30.037Z,18.25
2022-12-28T05:21:30.046Z,18.21
2022-12-28T05:22:30.114Z,18.21
2022-12-28T05:23:30.079Z,18.20
2022-12-28T05:24:30.305Z,18.20
2022-12-28T05:25:30.136Z,18.19
2022-12-28T05:26:30.092Z,18.17
2022-12-28T05:27:30.112Z,18.19
2022-12-28T05:28:30.156Z,18.20
2022-12-28T05:29:30.153Z,18.16
2022-12-28T05:30:30.176Z,18.16
2022-12-28T05:31:30.204Z,18.16
2022-12-28T05:32:30.201Z,18.16
2022-12-28T05:33:30.218Z,18.16
2022-12-28T05:34:30.232Z,18.17
2022-12-28T05:35:30.226Z,18.19
2022-12-28T05:36:30.283Z,18.19
2022-12-28T05:37:30.272Z,18.14
2022-12-28T05:38:30.278Z,18.17
2022-12-28T05:39:30.314Z,18.14
2022-12-28T05:40:30.327Z,18.16
2022-12-28T05:41:30.346Z,18.16
2022-12-28T05:42:30.384Z,18.11
2022-12-28T05:43:30.428Z,18.14
2022-12-28T05:44:30.464Z,18.11
2022-12-28T05:45:30.401Z,18.14
2022-12-28T05:46:30.459Z,18.16
2022-12-28T05:47:30.426Z,18.17
2022-12-28T05:48:30.449Z,18.19
2022-12-28T05:49:30.480Z,18.17
2022-12-28T05:50:30.516Z,18.14
2022-12-28T05:51:30.528Z,18.13
2022-12-28T05:52:30.555Z,18.13
2022-12-28T05:53:30.566Z,18.14
2022-12-28T05:54:30.636Z,18.13
2022-12-28T05:55:30.590Z,18.13
2022-12-28T05:56:30.628Z,18.13
2022-12-28T05:57:30.599Z,18.11
2022-12-28T05:58:30.619Z,18.13
2022-12-28T05:59:30.674Z,18.13
2022-12-28T06:01:56.833Z,18.14
2022-12-28T06:02:56.799Z,18.13
2022-12-28T06:03:56.607Z,18.13
2022-12-28T06:04:56.606Z,18.13
2022-12-28T06:05:56.579Z,18.11
2022-12-28T06:06:56.617Z,18.11
2022-12-28T06:07:56.646Z,18.11
2022-12-28T06:08:56.668Z,18.11
2022-12-28T06:09:56.708Z,18.13
2022-12-28T06:10:56.647Z,18.09
2022-12-28T06:11:56.675Z,18.10
2022-12-28T06:12:56.676Z,18.09
2022-12-28T06:13:56.644Z,18.09
2022-12-28T06:14:56.698Z,18.11
2022-12-28T06:15:56.685Z,18.10
2022-12-28T06:16:56.758Z,18.11
2022-12-28T06:17:56.709Z,18.13
2022-12-28T06:18:56.732Z,18.11
2022-12-28T06:19:56.725Z,18.11
2022-12-28T06:20:57.202Z,18.13
2022-12-28T06:21:56.716Z,18.11
2022-12-28T06:22:56.712Z,18.10
2022-12-28T06:23:56.699Z,18.11
2022-12-28T06:24:56.779Z,18.07
2022-12-28T06:25:56.730Z,18.10
2022-12-28T06:26:56.748Z,18.13
2022-12-28T06:27:56.731Z,18.14
2022-12-28T06:28:56.750Z,18.11
2022-12-28T06:29:56.795Z,18.14
2022-12-28T06:30:56.748Z,18.14
2022-12-28T06:31:56.808Z,18.13
2022-12-28T06:32:56.779Z,18.16
2022-12-28T06:33:56.794Z,18.17
2022-12-28T06:34:56.843Z,18.16
2022-12-28T06:35:56.820Z,18.17
2022-12-28T06:36:56.819Z,18.19
2022-12-28T06:37:56.793Z,18.17
2022-12-28T06:38:56.809Z,18.16
2022-12-28T06:39:56.852Z,18.14
2022-12-28T06:41:14.162Z,18.11
2022-12-28T06:41:56.839Z,18.14
2022-12-28T06:42:56.863Z,18.13
2022-12-28T06:43:56.847Z,18.13
2022-12-28T06:44:56.842Z,18.14
2022-12-28T06:45:56.893Z,18.14
2022-12-28T06:46:56.849Z,18.10
2022-12-28T06:47:56.863Z,18.05
2022-12-28T06:48:56.874Z,18.09
2022-12-28T06:49:56.933Z,18.09
2022-12-28T06:50:56.918Z,18.10
2022-12-28T06:51:56.894Z,18.11
2022-12-28T06:52:56.892Z,18.10
2022-12-28T06:53:56.927Z,18.10
2022-12-28T06:54:56.925Z,18.09
2022-12-28T06:55:56.917Z,18.10
2022-12-28T06:56:56.994Z,18.07
2022-12-28T06:57:56.963Z,18.10
2022-12-28T06:59:02.494Z,18.09
2022-12-28T06:59:56.986Z,18.13
2022-12-28T07:00:57.163Z,18.11
2022-12-28T07:01:57.145Z,18.13
2022-12-28T07:02:57.031Z,18.14
2022-12-28T07:03:56.998Z,18.11
2022-12-28T07:04:57.020Z,18.09
2022-12-28T07:05:57.071Z,18.10
2022-12-28T07:06:57.059Z,18.09
2022-12-28T07:07:57.029Z,18.10
2022-12-28T07:08:57.059Z,18.10
2022-12-28T07:09:57.075Z,18.11
2022-12-28T07:10:57.072Z,18.11
2022-12-28T07:11:57.090Z,18.10
2022-12-28T07:12:57.123Z,18.11
2022-12-28T07:13:57.117Z,18.11
2022-12-28T07:14:57.121Z,18.09
2022-12-28T07:15:57.123Z,18.10
2022-12-28T07:16:57.101Z,18.10
2022-12-28T07:17:57.125Z,18.14
2022-12-28T07:18:57.144Z,18.14
2022-12-28T07:19:57.171Z,18.14
2022-12-28T07:20:57.165Z,18.16
2022-12-28T07:21:57.171Z,18.16
2022-12-28T07:22:57.165Z,18.17
2022-12-28T07:23:57.243Z,18.17
2022-12-28T07:24:57.287Z,18.16
2022-12-28T07:25:57.253Z,18.13
2022-12-28T07:26:57.245Z,18.14
2022-12-28T07:27:57.271Z,18.16
2022-12-28T07:28:57.285Z,18.14
2022-12-28T07:29:57.306Z,18.16
2022-12-28T07:30:57.424Z,18.16
2022-12-28T07:31:57.309Z,18.16
2022-12-28T07:32:57.307Z,18.16
2022-12-28T07:33:57.323Z,18.17
2022-12-28T07:34:57.409Z,18.17
2022-12-28T07:35:57.336Z,18.16
2022-12-28T07:36:57.328Z,18.16
2022-12-28T07:37:57.457Z,18.16
2022-12-28T07:38:57.389Z,18.16
2022-12-28T07:39:57.431Z,18.20
2022-12-28T07:40:57.372Z,18.20
2022-12-28T07:41:57.380Z,18.20
2022-12-28T07:42:57.372Z,18.21
2022-12-28T07:43:57.405Z,18.23
2022-12-28T07:44:57.406Z,18.19
2022-12-28T07:45:57.452Z,18.20
2022-12-28T07:46:57.473Z,18.20
2022-12-28T07:47:57.444Z,18.17
2022-12-28T07:48:57.448Z,18.19
2022-12-28T07:49:57.439Z,18.17
2022-12-28T07:50:57.462Z,18.16
2022-12-28T07:51:57.501Z,18.17
2022-12-28T07:52:57.484Z,18.19
2022-12-28T07:53:57.493Z,18.20
2022-12-28T07:54:57.499Z,18.20
2022-12-28T07:55:57.509Z,18.19
2022-12-28T07:56:57.514Z,18.19
2022-12-28T07:57:57.575Z,18.20
2022-12-28T07:58:57.591Z,18.20
2022-12-28T07:59:57.569Z,18.19
2022-12-28T08:00:57.671Z,18.23
2022-12-28T08:01:57.724Z,18.25
2022-12-28T08:02:57.618Z,18.25
2022-12-28T08:03:57.830Z,18.25
2022-12-28T08:04:57.676Z,18.26
2022-12-28T08:05:57.652Z,18.26
2022-12-28T08:06:57.655Z,18.21
2022-12-28T08:08:03.384Z,18.23
2022-12-28T08:08:57.650Z,18.26
2022-12-28T08:09:57.687Z,18.26
2022-12-28T08:10:57.642Z,18.26
2022-12-28T08:11:57.664Z,18.29
2022-12-28T08:12:57.678Z,18.29
2022-12-28T08:13:57.677Z,18.28
2022-12-28T08:14:57.692Z,18.28
2022-12-28T08:15:57.770Z,18.31
2022-12-28T08:16:57.686Z,18.28
2022-12-28T08:17:57.710Z,18.28
2022-12-28T08:18:57.744Z,18.26
2022-12-28T08:19:57.758Z,18.26
2022-12-28T08:20:57.738Z,18.26
2022-12-28T08:21:57.729Z,18.28
2022-12-28T08:22:57.723Z,18.31
2022-12-28T08:23:57.750Z,18.35
2022-12-28T08:24:57.748Z,18.34
2022-12-28T08:25:57.765Z,18.38
2022-12-28T08:26:57.769Z,18.36
2022-12-28T08:27:57.753Z,18.35
2022-12-28T08:28:57.807Z,18.34
2022-12-28T08:29:57.788Z,18.35
2022-12-28T08:30:57.899Z,18.36
2022-12-28T08:31:57.801Z,18.38
2022-12-28T08:32:57.827Z,18.39
2022-12-28T08:33:57.862Z,18.38
2022-12-28T08:34:57.874Z,18.39
2022-12-28T08:35:57.868Z,18.38
2022-12-28T08:36:58.104Z,18.42
2022-12-28T08:37:57.863Z,18.42
2022-12-28T08:38:57.899Z,18.41
2022-12-28T08:39:57.900Z,18.42
2022-12-28T08:40:57.974Z,18.44
2022-12-28T08:41:57.960Z,18.44
2022-12-28T08:42:57.918Z,18.42
2022-12-28T08:43:58.016Z,18.46
2022-12-28T08:44:58.007Z,18.46
2022-12-28T08:45:58.196Z,18.44
2022-12-28T08:46:58.102Z,18.41
2022-12-28T08:47:58.073Z,18.41
2022-12-28T08:48:58.072Z,18.46
2022-12-28T08:49:58.030Z,18.44
2022-12-28T08:50:58.031Z,18.44
2022-12-28T08:51:58.056Z,18.46
2022-12-28T08:52:58.069Z,18.47
2022-12-28T08:53:58.108Z,18.51
2022-12-28T08:54:58.102Z,18.53
2022-12-28T08:56:02.850Z,18.51
2022-12-28T08:56:58.166Z,18.49
2022-12-28T08:57:58.148Z,18.51
2022-12-28T08:58:58.195Z,18.50
2022-12-28T08:59:58.156Z,18.51
2022-12-28T09:00:58.209Z,18.53
2022-12-28T09:01:58.305Z,18.57
2022-12-28T09:02:58.321Z,18.54
2022-12-28T09:03:58.199Z,18.54
2022-12-28T09:04:58.198Z,18.54
2022-12-28T09:05:58.234Z,18.59
2022-12-28T09:06:58.300Z,18.57
2022-12-28T09:07:59.876Z,18.60
2022-12-28T09:09:06.243Z,18.64
2022-12-28T09:09:58.319Z,18.65
2022-12-28T09:10:58.284Z,18.64
2022-12-28T09:11:58.322Z,18.66
2022-12-28T09:12:58.261Z,18.65
2022-12-28T09:13:58.269Z,18.64
2022-12-28T09:14:58.257Z,18.69
2022-12-28T09:15:58.291Z,18.68
2022-12-28T09:16:58.292Z,18.65
2022-12-28T09:17:58.323Z,18.66
2022-12-28T09:18:58.314Z,18.68
2022-12-28T09:19:58.367Z,18.71
2022-12-28T09:20:58.379Z,18.71
2022-12-28T09:21:58.402Z,18.71
2022-12-28T09:22:58.411Z,18.71
2022-12-28T09:23:58.395Z,18.72
2022-12-28T09:24:58.385Z,18.75
2022-12-28T09:25:58.403Z,18.74
2022-12-28T09:26:58.526Z,18.78
2022-12-28T09:27:59.689Z,18.78
2022-12-28T09:28:58.427Z,18.82
2022-12-28T09:29:58.460Z,18.79
2022-12-28T09:30:58.445Z,18.82
2022-12-28T09:31:58.443Z,18.83
2022-12-28T09:32:58.420Z,18.79
2022-12-28T09:34:34.388Z,18.78
2022-12-28T09:34:58.442Z,18.82
2022-12-28T09:35:58.468Z,18.82
2022-12-28T09:36:58.470Z,18.84
2022-12-28T09:37:58.459Z,18.83
2022-12-28T09:38:58.504Z,18.86
2022-12-28T09:40:01.624Z,18.87
2022-12-28T09:40:58.497Z,18.84
2022-12-28T09:41:58.500Z,18.87
2022-12-28T09:42:58.515Z,18.89
2022-12-28T09:43:58.581Z,18.87
2022-12-28T09:44:58.532Z,18.90
2022-12-28T09:45:58.581Z,18.91
2022-12-28T09:46:58.620Z,18.91
2022-12-28T09:47:58.560Z,18.93
2022-12-28T09:48:58.547Z,18.94
2022-12-28T09:49:58.612Z,18.93
2022-12-28T09:50:58.566Z,18.93
2022-12-28T09:51:58.600Z,18.94
2022-12-28T09:52:58.580Z,18.99
2022-12-28T09:53:58.595Z,19.02
2022-12-28T09:54:58.605Z,19.05
2022-12-28T09:55:58.611Z,19.01
2022-12-28T09:56:58.667Z,19.05
2022-12-28T09:57:58.624Z,19.02
2022-12-28T09:58:58.613Z,19.05
2022-12-28T09:59:58.653Z,19.05
2022-12-28T10:00:58.694Z,19.06
2022-12-28T10:01:58.780Z,19.06
2022-12-28T10:02:58.773Z,19.06
2022-12-28T10:03:58.702Z,19.02
2022-12-28T10:04:58.729Z,19.06
2022-12-28T10:05:58.743Z,19.06
2022-12-28T10:06:58.761Z,19.07
2022-12-28T10:07:58.788Z,19.09
2022-12-28T10:08:58.780Z,19.10
2022-12-28T10:09:58.801Z,19.12
2022-12-28T10:10:58.842Z,19.13
2022-12-28T10:11:58.855Z,19.17
2022-12-28T10:12:58.790Z,19.17
2022-12-28T10:13:58.814Z,19.24
2022-12-28T10:14:58.787Z,19.27
2022-12-28T10:15:58.849Z,19.31
2022-12-28T10:16:58.807Z,19.31
2022-12-28T10:17:58.852Z,19.30
2022-12-28T10:18:58.834Z,19.32
2022-12-28T10:19:58.813Z,19.32
2022-12-28T10:20:58.832Z,19.34
2022-12-28T10:21:58.838Z,19.38
2022-12-28T10:22:58.891Z,19.34
2022-12-28T10:24:58.945Z,19.34
2022-12-28T10:25:58.911Z,19.34
2022-12-28T10:26:58.892Z,19.34
2022-12-28T10:27:58.898Z,19.39
2022-12-28T10:28:58.883Z,19.40
2022-12-28T10:29:58.944Z,19.42
2022-12-28T10:30:58.915Z,19.40
2022-12-28T10:31:58.893Z,19.42
2022-12-28T10:33:03.050Z,19.42
2022-12-28T10:33:58.966Z,19.42
2022-12-28T10:34:58.985Z,19.43
2022-12-28T10:35:59.043Z,19.45
2022-12-28T10:36:58.976Z,19.46
2022-12-28T10:37:58.971Z,19.45
2022-12-28T10:38:59.043Z,19.43
2022-12-28T10:39:59.044Z,19.43
2022-12-28T10:40:59.118Z,19.40
2022-12-28T10:41:59.085Z,19.40
2022-12-28T10:42:59.114Z,19.43
2022-12-28T10:44:37.433Z,19.45
2022-12-28T10:44:59.123Z,19.45
2022-12-28T10:45:59.136Z,19.49
2022-12-28T10:46:59.188Z,19.47
2022-12-28T10:47:59.152Z,19.49
2022-12-28T10:48:59.149Z,19.50
2022-12-28T10:50:59.146Z,19.52
2022-12-28T10:51:59.128Z,19.52
2022-12-28T10:52:59.168Z,19.53
2022-12-28T10:53:59.164Z,19.55
2022-12-28T10:55:08.558Z,19.57
2022-12-28T10:55:59.163Z,19.57
2022-12-28T10:56:59.205Z,19.60
2022-12-28T10:58:59.187Z,19.60
2022-12-28T10:59:59.181Z,19.62
2022-12-28T11:00:59.285Z,19.62
2022-12-28T11:01:59.342Z,19.64
2022-12-28T11:02:59.434Z,19.64
2022-12-28T11:03:59.258Z,19.65
2022-12-28T11:04:59.260Z,19.67
2022-12-28T11:05:59.333Z,19.65
2022-12-28T11:06:59.336Z,19.64
2022-12-28T11:07:59.317Z,19.67
2022-12-28T11:08:59.337Z,19.68
2022-12-28T11:09:59.379Z,19.67
2022-12-28T11:10:59.384Z,19.67
2022-12-28T11:11:59.366Z,19.68
2022-12-28T11:12:59.358Z,19.67
2022-12-28T11:13:59.393Z,19.65
2022-12-28T11:14:59.414Z,19.67
2022-12-28T11:15:59.459Z,19.65
2022-12-28T11:16:59.432Z,19.67
2022-12-28T11:17:59.476Z,19.65
2022-12-28T11:18:59.515Z,19.65
2022-12-28T11:19:59.510Z,19.65
2022-12-28T11:20:59.514Z,19.64
2022-12-28T11:21:59.511Z,19.61
2022-12-28T11:22:59.490Z,19.62
2022-12-28T11:23:59.528Z,19.62
2022-12-28T11:24:59.515Z,19.64
2022-12-28T11:25:59.519Z,19.65
2022-12-28T11:26:59.497Z,19.67
2022-12-28T11:27:59.489Z,19.65
2022-12-28T11:28:59.516Z,19.64
2022-12-28T11:29:59.506Z,19.62
2022-12-28T11:30:59.509Z,19.62
2022-12-28T11:31:59.531Z,19.62
2022-12-28T11:32:59.505Z,19.61
2022-12-28T11:33:59.515Z,19.62
2022-12-28T11:34:59.495Z,19.61
2022-12-28T11:36:00.544Z,19.64
2022-12-28T11:36:59.537Z,19.67
2022-12-28T11:37:59.601Z,19.65
2022-12-28T11:38:59.580Z,19.64
2022-12-28T11:39:59.571Z,19.64
2022-12-28T11:40:59.793Z,19.65
2022-12-28T11:42:59.598Z,19.64
2022-12-28T11:43:59.632Z,19.64
2022-12-28T11:44:59.634Z,19.62
2022-12-28T11:45:59.722Z,19.64
2022-12-28T11:46:59.656Z,19.65
2022-12-28T11:47:59.637Z,19.64
2022-12-28T11:48:59.659Z,19.64
2022-12-28T11:49:59.631Z,19.64
2022-12-28T11:50:59.625Z,19.64
2022-12-28T11:51:59.672Z,19.62
2022-12-28T11:52:59.658Z,19.64
2022-12-28T11:53:59.693Z,19.62
2022-12-28T11:54:59.692Z,19.61
2022-12-28T11:55:59.693Z,19.64
2022-12-28T11:56:59.709Z,19.62
2022-12-28T11:57:59.716Z,19.64
2022-12-28T11:58:59.693Z,19.62
2022-12-28T11:59:59.712Z,19.64
2022-12-28T12:00:59.793Z,19.64
2022-12-28T12:01:59.722Z,19.62
2022-12-28T12:02:59.848Z,19.62
2022-12-28T12:03:59.763Z,19.64
2022-12-28T12:04:59.739Z,19.65
2022-12-28T12:05:59.744Z,19.64
2022-12-28T12:06:59.751Z,19.62
2022-12-28T12:07:59.733Z,19.61
2022-12-28T12:08:59.783Z,19.61
2022-12-28T12:09:59.796Z,19.62
2022-12-28T12:10:59.813Z,19.62
2022-12-28T12:11:59.819Z,19.61
2022-12-28T12:12:59.803Z,19.60
2022-12-28T12:13:59.795Z,19.58
2022-12-28T12:14:59.817Z,19.55
2022-12-28T12:15:59.851Z,19.55
2022-12-28T12:16:59.867Z,19.55
2022-12-28T12:17:59.813Z,19.58
2022-12-28T12:18:59.794Z,19.57
2022-12-28T12:19:59.846Z,19.55
2022-12-28T12:20:59.840Z,19.57
2022-12-28T12:21:59.834Z,19.55
2022-12-28T12:24:25.731Z,19.53
2022-12-28T12:25:25.782Z,19.55
2022-12-28T12:26:25.756Z,19.57
2022-12-28T12:27:25.746Z,19.57
2022-12-28T12:28:25.759Z,19.58
2022-12-28T12:29:25.778Z,19.60
2022-12-28T12:30:25.836Z,19.60
2022-12-28T12:31:26.831Z,19.58
2022-12-28T12:32:25.847Z,19.57
2022-12-28T12:33:25.880Z,19.58
2022-12-28T12:34:25.875Z,19.57
2022-12-28T12:35:25.921Z,19.55
2022-12-28T12:36:25.940Z,19.53
2022-12-28T12:37:25.938Z,19.53
2022-12-28T12:38:25.955Z,19.53
2022-12-28T12:39:25.966Z,19.60
2022-12-28T12:40:25.994Z,19.61
2022-12-28T12:41:26.084Z,19.55
2022-12-28T12:42:26.045Z,19.53
2022-12-28T12:43:26.062Z,19.57
2022-12-28T12:44:26.088Z,19.57
2022-12-28T12:45:26.122Z,19.55
2022-12-28T12:46:26.186Z,19.55
2022-12-28T12:47:26.191Z,19.58
2022-12-28T12:48:26.209Z,19.61
2022-12-28T12:49:26.195Z,19.61
2022-12-28T12:50:26.238Z,19.62
2022-12-28T12:51:26.271Z,19.61
2022-12-28T12:52:26.289Z,19.65
2022-12-28T12:53:26.330Z,19.65
2022-12-28T12:54:26.316Z,19.62
2022-12-28T12:55:26.351Z,19.60
2022-12-28T12:56:26.367Z,19.61
2022-12-28T12:57:26.385Z,19.61
2022-12-28T12:58:26.351Z,19.60
2022-12-28T12:59:26.377Z,19.61